Time;durP1;ratioP1;P1;durP2;ratioP2;P2;SDS_P1;SDS_P2;PMS_P1;PMS_P2;Temp;Humidity;BMP_temperature;BMP_pressure;BME280_temperature;BME280_humidity;BME280_pressure;Samples;Min_cycle;Max_cycle;Signal;HPM_P1;HPM_P2
2023/06/24 00:00:13;;;;;;;6.47;5.87;;;16.40;99.90;;;;;;5093558;28;20264;-69
2023/06/24 00:02:41;;;;;;;7.73;5.70;;;16.30;99.90;;;;;;5095226;28;20193;-68
2023/06/24 00:05:08;;;;;;;6.70;6.00;;;16.30;99.90;;;;;;5088767;28;20492;-68
2023/06/24 00:07:43;;;;;;;10.83;6.50;;;16.20;99.90;;;;;;5075009;28;20458;-69
2023/06/24 00:10:13;;;;;;;7.27;6.63;;;16.20;99.90;;;;;;5074145;28;20408;-68
2023/06/24 00:12:41;;;;;;;8.20;7.40;;;16.20;99.90;;;;;;5086821;28;20438;-68
2023/06/24 00:15:09;;;;;;;8.93;6.13;;;16.20;99.90;;;;;;5095380;28;20420;-69
2023/06/24 00:17:35;;;;;;;6.97;6.27;;;16.10;99.90;;;;;;5079307;28;20450;-70
2023/06/24 00:20:00;;;;;;;11.03;7.60;;;16.10;99.90;;;;;;5074174;28;20495;-69
2023/06/24 00:22:26;;;;;;;7.20;5.90;;;16.10;99.90;;;;;;5078064;28;20315;-68
2023/06/24 00:24:52;;;;;;;6.80;6.17;;;16.10;99.90;;;;;;5094439;28;20185;-68
2023/06/24 00:27:17;;;;;;;8.30;5.53;;;16.10;99.90;;;;;;5093285;28;20193;-68
2023/06/24 00:29:43;;;;;;;8.77;6.20;;;16.10;99.90;;;;;;5094947;28;20161;-69
2023/06/24 00:32:09;;;;;;;8.30;6.30;;;16.00;99.90;;;;;;5094070;28;20239;-69
2023/06/24 00:34:34;;;;;;;7.23;6.63;;;16.00;99.90;;;;;;5094867;28;20186;-69
2023/06/24 00:37:02;;;;;;;11.27;7.20;;;16.00;99.90;;;;;;5093837;28;20641;-68
2023/06/24 00:39:28;;;;;;;9.63;7.00;;;15.90;99.90;;;;;;5093597;28;20182;-69
2023/06/24 00:41:54;;;;;;;8.10;6.57;;;15.90;99.90;;;;;;5082671;28;20931;-68
2023/06/24 00:44:20;;;;;;;8.00;6.80;;;15.90;99.90;;;;;;5074403;28;20190;-69
2023/06/24 00:46:46;;;;;;;13.63;7.50;;;15.80;99.90;;;;;;5074347;28;20162;-68
2023/06/24 00:49:13;;;;;;;7.80;6.03;;;15.80;99.90;;;;;;5074191;28;20178;-68
2023/06/24 00:51:40;;;;;;;8.17;7.30;;;15.70;99.90;;;;;;5055632;28;20519;-68
2023/06/24 00:54:06;;;;;;;10.13;6.70;;;15.70;99.90;;;;;;5087074;28;20455;-71
2023/06/24 00:56:34;;;;;;;7.97;6.97;;;15.60;99.90;;;;;;5093940;28;20395;-69
2023/06/24 00:59:04;;;;;;;7.90;6.83;;;15.60;99.90;;;;;;5070654;28;20500;-68
2023/06/24 01:01:35;;;;;;;9.47;7.53;;;15.60;99.90;;;;;;5078595;28;20435;-69
2023/06/24 01:04:02;;;;;;;9.67;8.00;;;15.50;99.90;;;;;;5075555;28;20804;-68
2023/06/24 01:06:31;;;;;;;8.73;7.80;;;15.40;99.90;;;;;;5092014;28;20465;-69
2023/06/24 01:09:02;;;;;;;7.47;6.73;;;15.40;99.90;;;;;;5093588;28;20448;-69
2023/06/24 01:11:28;;;;;;;9.47;6.80;;;15.40;99.90;;;;;;5092880;28;20419;-68
2023/06/24 01:13:54;;;;;;;7.83;6.87;;;15.40;99.90;;;;;;5075292;28;20436;-69
2023/06/24 01:16:41;;;;;;;12.80;8.30;;;15.30;99.90;;;;;;5073778;28;20397;-69
2023/06/24 01:19:46;;;;;;;9.00;7.47;;;15.30;99.90;;;;;;5073881;28;20830;-68
2023/06/24 01:22:14;;;;;;;8.53;7.10;;;15.40;1.00;;;;;;5070178;28;20439;-68
2023/06/24 01:25:04;;;;;;;9.00;7.70;;;15.30;1.00;;;;;;5093691;28;20416;-68
2023/06/24 01:27:55;;;;;;;10.13;7.33;;;15.30;1.00;;;;;;5084701;28;20452;-68
2023/06/24 01:30:58;;;;;;;9.17;7.83;;;15.30;1.00;;;;;;5071879;28;20753;-69
2023/06/24 01:33:32;;;;;;;8.57;7.27;;;15.20;1.00;;;;;;5055115;28;20485;-68
2023/06/24 01:36:00;;;;;;;7.83;7.03;;;15.20;1.00;;;;;;5085270;28;20450;-69
2023/06/24 01:38:35;;;;;;;8.93;6.40;;;15.20;1.00;;;;;;5093759;28;20395;-68
2023/06/24 01:41:04;;;;;;;8.70;7.40;;;15.20;1.00;;;;;;5092801;28;20415;-68
2023/06/24 01:43:32;;;;;;;8.83;7.00;;;15.20;1.00;;;;;;5093189;28;20462;-68
2023/06/24 01:45:59;;;;;;;12.13;8.27;;;15.10;1.00;;;;;;5093255;28;20398;-69
2023/06/24 01:48:32;;;;;;;7.73;6.93;;;15.10;1.00;;;;;;5092936;28;20538;-69
2023/06/24 01:51:00;;;;;;;9.73;7.43;;;15.00;1.00;;;;;;5091172;28;20780;-69
2023/06/24 01:53:28;;;;;;;8.33;7.43;;;15.10;1.00;;;;;;5074443;28;20424;-68
2023/06/24 01:55:57;;;;;;;8.37;6.53;;;15.00;1.00;;;;;;5088083;28;20403;-68
2023/06/24 01:58:23;;;;;;;11.50;7.47;;;15.00;1.00;;;;;;5093715;28;20503;-68
2023/06/24 02:00:50;;;;;;;11.40;8.30;;;15.00;1.00;;;;;;5092685;28;20905;-69
2023/06/24 02:03:17;;;;;;;9.07;7.40;;;15.00;1.00;;;;;;5091959;28;20469;-68
2023/06/24 02:05:45;;;;;;;8.60;7.80;;;14.90;1.00;;;;;;5092303;28;20427;-68
2023/06/24 02:08:13;;;;;;;8.33;7.37;;;14.90;1.00;;;;;;5093105;28;20978;-68
2023/06/24 02:10:40;;;;;;;9.30;7.47;;;14.90;1.00;;;;;;5092436;28;20749;-69
2023/06/24 02:13:09;;;;;;;9.40;8.03;;;14.90;1.00;;;;;;5081903;28;21002;-68
2023/06/24 02:15:36;;;;;;;12.97;8.37;;;14.90;1.00;;;;;;5083159;28;20407;-68
2023/06/24 02:18:04;;;;;;;10.30;9.13;;;14.90;1.00;;;;;;5092490;28;20459;-68
2023/06/24 02:20:31;;;;;;;11.03;7.93;;;14.80;1.00;;;;;;5092138;28;20402;-68
2023/06/24 02:22:58;;;;;;;9.07;8.17;;;14.80;1.00;;;;;;5092926;28;20423;-69
2023/06/24 02:25:26;;;;;;;12.33;7.80;;;14.80;1.00;;;;;;5092798;28;20426;-68
2023/06/24 02:27:53;;;;;;;9.27;8.37;;;14.80;1.00;;;;;;5092201;28;20504;-68
2023/06/24 02:30:21;;;;;;;12.60;8.20;;;14.80;1.00;;;;;;5092059;28;20378;-68
2023/06/24 02:32:47;;;;;;;17.43;8.37;;;14.70;1.00;;;;;;5092292;28;20912;-69
2023/06/24 02:35:13;;;;;;;12.10;8.00;;;14.70;1.00;;;;;;5078329;28;20420;-68
2023/06/24 02:37:39;;;;;;;9.80;8.80;;;14.70;1.00;;;;;;5072484;28;20230;-68
2023/06/24 02:40:07;;;;;;;8.67;7.70;;;14.70;1.00;;;;;;5072548;28;20401;-75
2023/06/24 02:42:33;;;;;;;8.57;7.77;;;14.70;1.00;;;;;;5087155;28;20753;-68
2023/06/24 02:45:00;;;;;;;14.83;8.60;;;14.70;1.00;;;;;;5096929;28;20390;-69
2023/06/24 02:47:26;;;;;;;9.17;8.00;;;14.60;1.00;;;;;;5094812;28;20212;-68
2023/06/24 02:49:54;;;;;;;8.93;8.07;;;14.60;1.00;;;;;;5096840;28;20414;-69
2023/06/24 02:52:20;;;;;;;11.30;8.00;;;14.60;1.00;;;;;;5096360;28;20992;-68
2023/06/24 02:54:46;;;;;;;10.50;8.30;;;14.60;1.00;;;;;;5096537;28;20485;-68
2023/06/24 02:57:14;;;;;;;8.10;7.40;;;14.60;1.00;;;;;;5094430;28;20484;-68
2023/06/24 02:59:39;;;;;;;8.93;7.03;;;14.60;1.00;;;;;;5076024;28;20410;-68
2023/06/24 03:02:06;;;;;;;12.93;7.80;;;14.50;1.00;;;;;;5094473;28;20493;-68
2023/06/24 03:04:32;;;;;;;9.10;7.90;;;14.50;1.00;;;;;;5096660;28;20751;-68
2023/06/24 03:06:59;;;;;;;9.77;8.40;;;14.50;1.00;;;;;;5096699;28;20738;-68
2023/06/24 03:09:27;;;;;;;12.10;7.87;;;14.50;1.00;;;;;;5096595;28;20428;-69
2023/06/24 03:11:53;;;;;;;9.17;8.20;;;14.40;1.00;;;;;;5094811;28;20419;-69
2023/06/24 03:14:19;;;;;;;8.50;7.70;;;14.40;1.00;;;;;;5075734;28;20424;-68
2023/06/24 03:16:45;;;;;;;12.93;8.43;;;14.40;1.00;;;;;;5094572;28;20757;-70
2023/06/24 03:19:11;;;;;;;8.40;7.67;;;14.40;1.00;;;;;;5096016;28;20395;-70
2023/06/24 03:21:36;;;;;;;9.93;7.40;;;14.40;1.00;;;;;;5095431;28;20216;-68
2023/06/24 03:24:02;;;;;;;10.93;8.50;;;14.50;1.00;;;;;;5095607;28;20197;-68
2023/06/24 03:26:35;;;;;;;12.33;8.10;;;14.50;1.00;;;;;;5096256;28;20185;-68
2023/06/24 03:29:01;;;;;;;13.57;6.93;;;14.50;1.00;;;;;;5093445;28;20266;-68
2023/06/24 03:31:27;;;;;;;11.70;7.57;;;14.50;1.00;;;;;;5093893;28;20427;-69
2023/06/24 03:33:52;;;;;;;8.70;7.93;;;14.50;1.00;;;;;;5078206;28;20765;-68
2023/06/24 03:36:18;;;;;;;9.70;7.63;;;14.50;1.00;;;;;;5095964;28;20882;-69
2023/06/24 03:38:44;;;;;;;13.40;7.40;;;14.50;1.00;;;;;;5095736;28;20206;-68
2023/06/24 03:41:10;;;;;;;13.57;8.20;;;14.50;1.00;;;;;;5083333;28;20412;-68
2023/06/24 03:43:36;;;;;;;8.20;7.37;;;14.50;1.00;;;;;;5062865;28;20258;-68
2023/06/24 03:46:02;;;;;;;8.23;7.43;;;14.50;1.00;;;;;;5095907;28;20256;-68
2023/06/24 03:48:28;;;;;;;8.60;7.17;;;14.60;1.00;;;;;;5095326;28;20642;-68
2023/06/24 03:50:53;;;;;;;13.50;7.40;;;14.60;1.00;;;;;;5094992;28;20403;-68
2023/06/24 03:53:19;;;;;;;9.17;7.37;;;14.60;1.00;;;;;;5094822;28;20589;-69
2023/06/24 03:55:45;;;;;;;8.20;7.40;;;14.60;1.00;;;;;;5066671;28;20216;-68
2023/06/24 03:58:11;;;;;;;15.17;7.70;;;14.60;1.00;;;;;;5083794;28;20177;-68
2023/06/24 04:00:40;;;;;;;7.47;6.63;;;14.60;1.00;;;;;;5076605;28;20181;-69
2023/06/24 04:03:07;;;;;;;12.20;6.27;;;14.70;1.00;;;;;;5095627;28;20181;-69
2023/06/24 04:05:33;;;;;;;7.57;6.80;;;14.70;1.00;;;;;;5095670;28;20399;-69
2023/06/24 04:07:59;;;;;;;7.73;6.93;;;14.80;1.00;;;;;;5095018;28;20486;-68
2023/06/24 04:10:25;;;;;;;10.87;7.17;;;14.80;1.00;;;;;;5093234;28;20525;-69
2023/06/24 04:12:51;;;;;;;8.20;7.13;;;14.80;1.00;;;;;;5076431;28;20162;-71
2023/06/24 04:15:17;;;;;;;9.50;7.03;;;14.80;1.00;;;;;;5075021;28;20500;-68
2023/06/24 04:17:42;;;;;;;10.87;6.57;;;14.90;1.00;;;;;;5075173;28;20189;-70
2023/06/24 04:20:09;;;;;;;8.60;6.90;;;14.80;1.00;;;;;;5075473;28;20419;-69
2023/06/24 04:22:37;;;;;;;9.60;6.73;;;14.90;1.00;;;;;;5093406;28;20173;-69
2023/06/24 04:25:05;;;;;;;8.70;6.33;;;15.00;1.00;;;;;;5093110;28;20928;-69
2023/06/24 04:27:32;;;;;;;10.13;7.30;;;15.00;1.00;;;;;;5077319;28;20470;-68
2023/06/24 04:29:58;;;;;;;8.73;7.40;;;15.00;1.00;;;;;;5074469;28;20402;-69
2023/06/24 04:32:24;;;;;;;7.43;6.67;;;15.10;1.00;;;;;;5073650;28;20758;-68
2023/06/24 04:34:50;;;;;;;7.87;7.07;;;15.10;1.00;;;;;;5074717;28;20524;-68
2023/06/24 04:37:16;;;;;;;8.20;7.40;;;15.20;1.00;;;;;;5076781;28;22015;-68
2023/06/24 04:39:44;;;;;;;11.07;6.43;;;15.10;1.00;;;;;;5094771;28;20227;-69
2023/06/24 04:42:10;;;;;;;7.57;6.40;;;15.20;1.00;;;;;;5093134;28;20173;-68
2023/06/24 04:44:36;;;;;;;7.53;6.83;;;15.30;1.00;;;;;;5094795;28;20427;-68
2023/06/24 04:47:02;;;;;;;8.47;6.20;;;15.30;1.00;;;;;;5094704;28;20768;-69
2023/06/24 04:49:28;;;;;;;7.23;6.50;;;15.30;1.00;;;;;;5093948;28;20809;-69
2023/06/24 04:51:54;;;;;;;10.10;6.57;;;15.40;1.00;;;;;;5088472;28;20459;-69
2023/06/24 04:54:20;;;;;;;7.30;6.10;;;15.50;1.00;;;;;;5076195;28;20593;-68
2023/06/24 04:56:48;;;;;;;7.37;6.67;;;15.60;1.00;;;;;;5078908;28;20166;-71
2023/06/24 04:59:14;;;;;;;8.90;7.13;;;15.60;1.00;;;;;;5074008;28;20162;-68
2023/06/24 05:01:39;;;;;;;7.10;6.50;;;15.70;1.00;;;;;;5073435;28;20439;-68
2023/06/24 05:04:05;;;;;;;9.57;6.73;;;15.70;1.00;;;;;;5083747;28;20490;-69
2023/06/24 05:06:31;;;;;;;8.00;6.37;;;15.80;1.00;;;;;;5094335;28;20184;-68
2023/06/24 05:08:57;;;;;;;11.17;6.00;;;15.90;1.00;;;;;;5086827;28;20659;-69
2023/06/24 05:11:23;;;;;;;6.70;6.00;;;15.90;1.00;;;;;;5086600;28;20239;-68
2023/06/24 05:13:48;;;;;;;8.23;6.57;;;16.00;1.00;;;;;;5093759;28;20200;-68
2023/06/24 05:16:14;;;;;;;9.70;7.70;;;16.10;1.00;;;;;;5093631;28;20208;-71
2023/06/24 05:18:40;;;;;;;8.17;6.77;;;16.10;1.00;;;;;;5094201;28;20189;-69
2023/06/24 05:21:06;;;;;;;7.80;6.80;;;16.20;1.00;;;;;;5092501;28;20188;-73
2023/06/24 05:23:31;;;;;;;7.10;6.37;;;16.30;1.00;;;;;;5093789;28;20209;-69
2023/06/24 05:25:57;;;;;;;6.53;5.23;;;16.40;1.00;;;;;;5089648;28;20574;-68
2023/06/24 05:28:23;;;;;;;7.30;6.17;;;16.40;1.00;;;;;;5073462;28;20213;-69
2023/06/24 05:30:51;;;;;;;10.03;6.63;;;16.50;1.00;;;;;;5072497;28;20500;-69
2023/06/24 05:33:17;;;;;;;8.47;7.17;;;16.50;1.00;;;;;;5073294;28;20182;-69
2023/06/24 05:35:43;;;;;;;6.00;5.60;;;16.70;1.00;;;;;;5085511;28;20977;-68
2023/06/24 05:38:28;;;;;;;6.77;5.60;;;16.80;1.00;;;;;;5092360;28;20654;-69
2023/06/24 05:40:54;;;;;;;6.17;5.37;;;16.70;1.00;;;;;;5093040;28;20433;-69
2023/06/24 05:43:19;;;;;;;7.80;5.97;;;16.70;1.00;;;;;;5079533;28;20896;-68
2023/06/24 05:45:45;;;;;;;9.87;6.60;;;16.70;1.00;;;;;;5072991;28;20405;-68
2023/06/24 05:48:48;;;;;;;11.53;6.57;;;16.80;1.00;;;;;;5073193;28;20229;-69
2023/06/24 05:51:26;;;;;;;8.17;5.93;;;16.90;1.00;;;;;;5086128;28;20590;-68
2023/06/24 05:53:52;;;;;;;7.73;6.30;;;16.90;1.00;;;;;;5093542;28;20844;-70
2023/06/24 05:56:18;;;;;;;8.10;6.20;;;17.00;1.00;;;;;;5093313;28;20427;-65
2023/06/24 05:58:44;;;;;;;6.30;5.80;;;17.00;1.00;;;;;;5093268;28;20600;-66
2023/06/24 06:07:07;;;;;;;11.00;6.67;;;17.00;1.00;;;;;;5093002;28;20829;-67
2023/06/24 06:09:33;;;;;;;7.97;6.23;;;17.00;1.00;;;;;;5075054;28;20412;-67
2023/06/24 06:11:59;;;;;;;5.83;5.23;;;17.00;1.00;;;;;;5092523;28;20193;-66
2023/06/24 06:14:25;;;;;;;8.00;5.40;;;16.90;1.00;;;;;;5093385;28;20235;-66
2023/06/24 06:16:53;;;;;;;7.87;5.90;;;16.90;1.00;;;;;;5098934;28;20404;-69
2023/06/24 06:19:25;;;;;;;8.73;6.47;;;17.00;1.00;;;;;;5096469;28;20645;-66
2023/06/24 06:21:51;;;;;;;11.33;6.20;;;17.00;1.00;;;;;;5098465;28;20820;-69
2023/06/24 06:24:17;;;;;;;8.50;5.97;;;17.00;1.00;;;;;;5081424;28;20523;-66
2023/06/24 06:26:44;;;;;;;6.97;6.00;;;16.90;1.00;;;;;;5099796;28;20490;-68
2023/06/24 06:29:11;;;;;;;9.83;6.10;;;16.90;1.00;;;;;;5099285;28;20665;-68
2023/06/24 06:31:40;;;;;;;6.70;5.40;;;17.10;1.00;;;;;;5098314;28;20439;-67
2023/06/24 06:34:09;;;;;;;8.43;5.77;;;17.20;1.00;;;;;;5099103;28;20605;-65
2023/06/24 06:36:38;;;;;;;7.33;6.60;;;17.30;1.00;;;;;;5095817;28;20470;-67
2023/06/24 06:39:03;;;;;;;8.53;5.67;;;17.40;1.00;;;;;;5079437;28;20765;-67
2023/06/24 06:41:29;;;;;;;7.07;5.47;;;17.50;1.00;;;;;;5060658;28;20427;-67
2023/06/24 06:43:55;;;;;;;6.57;5.93;;;17.60;1.00;;;;;;5079314;28;20190;-67
2023/06/24 06:46:21;;;;;;;7.27;5.53;;;17.50;1.00;;;;;;5096651;28;20656;-65
2023/06/24 06:48:47;;;;;;;4.97;4.47;;;17.60;1.00;;;;;;5081154;28;20462;-66
2023/06/24 06:51:13;;;;;;;12.23;5.37;;;17.70;1.00;;;;;;5098422;28;20776;-68
2023/06/24 06:53:39;;;;;;;6.07;4.93;;;17.80;1.00;;;;;;5099915;28;20439;-65
2023/06/24 06:56:05;;;;;;;9.37;5.43;;;17.90;1.00;;;;;;5097962;28;20180;-66
2023/06/24 06:58:31;;;;;;;8.70;4.90;;;17.90;1.00;;;;;;5099830;28;20407;-65
2023/06/24 07:01:07;;;;;;;6.30;5.40;;;17.90;1.00;;;;;;5093978;28;20561;-68
2023/06/24 07:03:33;;;;;;;5.90;5.17;;;18.00;1.00;;;;;;5072897;28;20503;-67
2023/06/24 07:05:59;;;;;;;6.37;4.97;;;18.20;1.00;;;;;;5077029;28;20489;-65
2023/06/24 07:08:35;;;;;;;7.70;5.70;;;18.40;1.00;;;;;;5098942;28;20454;-66
2023/06/24 07:11:04;;;;;;;7.83;4.33;;;18.50;1.00;;;;;;5098381;28;20181;-68
2023/06/24 07:13:30;;;;;;;4.57;4.17;;;18.60;1.00;;;;;;5097570;28;20434;-69
2023/06/24 07:15:56;;;;;;;6.30;5.60;;;18.70;99.90;;;;;;5111271;28;20414;-65
2023/06/24 07:18:22;;;;;;;4.67;4.17;;;18.70;99.90;;;;;;5079380;28;20661;-68
2023/06/24 07:20:48;;;;;;;6.40;5.13;;;18.60;99.90;;;;;;5076728;28;20424;-70
2023/06/24 07:23:14;;;;;;;5.17;4.77;;;18.70;99.90;;;;;;5094394;28;20922;-69
2023/06/24 07:25:40;;;;;;;10.20;4.50;;;18.70;99.90;;;;;;5081186;28;20472;-68
2023/06/24 07:28:06;;;;;;;10.83;4.80;;;18.90;99.90;;;;;;5096147;28;20455;-68
2023/06/24 07:30:32;;;;;;;6.30;4.17;;;18.90;99.90;;;;;;5095175;28;20618;-68
2023/06/24 07:33:05;;;;;;;5.20;4.53;;;19.00;99.90;;;;;;5093376;28;20423;-69
2023/06/24 07:35:40;;;;;;;5.83;3.77;;;19.20;99.90;;;;;;5092030;28;20852;-69
2023/06/24 07:38:06;;;;;;;4.43;4.00;;;19.30;99.90;;;;;;5078202;28;20437;-68
2023/06/24 07:40:32;;;;;;;4.80;3.97;;;19.40;99.90;;;;;;5094845;28;20893;-69
2023/06/24 07:42:57;;;;;;;6.03;4.33;;;19.50;99.90;;;;;;5095766;28;20171;-70
2023/06/24 07:45:25;;;;;;;6.07;4.10;;;19.60;99.90;;;;;;5095852;28;20177;-69
2023/06/24 07:47:51;;;;;;;5.33;4.80;;;19.60;99.90;;;;;;5095639;28;20243;-69
2023/06/24 07:50:17;;;;;;;4.70;4.30;;;19.60;99.90;;;;;;5090337;28;20849;-68
2023/06/24 07:52:42;;;;;;;5.33;4.10;;;19.50;99.90;;;;;;5091246;28;20495;-69
2023/06/24 07:55:08;;;;;;;5.73;4.20;;;19.60;99.90;;;;;;5075600;28;20179;-70
2023/06/24 07:57:34;;;;;;;7.30;4.53;;;19.60;99.90;;;;;;5074794;28;20174;-69
2023/06/24 08:00:14;;;;;;;8.13;4.50;;;19.60;99.90;;;;;;5075358;28;20177;-68
2023/06/24 08:02:41;;;;;;;5.20;4.37;;;19.60;99.90;;;;;;5075405;28;20180;-68
2023/06/24 08:05:09;;;;;;;4.37;4.07;;;19.80;99.90;;;;;;5075513;28;20492;-68
2023/06/24 08:07:38;;;;;;;5.10;4.53;;;19.90;99.90;;;;;;5075397;28;20816;-70
2023/06/24 08:10:17;;;;;;;4.77;4.20;;;20.10;99.90;;;;;;5074488;28;20407;-75
2023/06/24 08:12:43;;;;;;;4.47;3.97;;;20.40;99.90;;;;;;5074080;28;20424;-69
2023/06/24 08:15:09;;;;;;;5.03;4.20;;;20.60;99.90;;;;;;5090661;28;20415;-68
2023/06/24 08:17:38;;;;;;;4.77;4.47;;;20.80;99.90;;;;;;5091218;28;20181;-70
2023/06/24 08:20:04;;;;;;;8.80;4.47;;;21.00;99.90;;;;;;5095111;28;20422;-76
2023/06/24 08:22:30;;;;;;;3.57;3.27;;;21.10;99.90;;;;;;5094904;28;20892;-69
2023/06/24 08:24:56;;;;;;;4.00;3.70;;;21.20;99.90;;;;;;5085440;28;20450;-68
2023/06/24 08:27:22;;;;;;;6.03;3.43;;;21.20;99.90;;;;;;5074513;28;20448;-69
2023/06/24 08:29:48;;;;;;;4.07;3.70;;;21.10;99.90;;;;;;5074669;28;20415;-72
2023/06/24 08:32:13;;;;;;;4.07;3.70;;;21.20;99.90;;;;;;5074105;28;20642;-69
2023/06/24 08:34:39;;;;;;;6.63;3.87;;;21.20;99.90;;;;;;5074380;28;20187;-69
2023/06/24 08:37:08;;;;;;;4.33;4.00;;;21.30;99.90;;;;;;5090532;28;20617;-68
2023/06/24 08:39:38;;;;;;;4.73;3.03;;;21.50;99.90;;;;;;5074173;28;20174;-69
2023/06/24 08:42:04;;;;;;;3.87;3.57;;;21.50;99.90;;;;;;5073905;28;20408;-69
2023/06/24 08:44:30;;;;;;;3.73;3.43;;;21.30;99.90;;;;;;5056424;28;20439;-69
2023/06/24 08:46:56;;;;;;;5.10;3.50;;;21.20;99.90;;;;;;5074814;28;20648;-68
2023/06/24 08:49:22;;;;;;;3.83;3.50;;;21.20;99.90;;;;;;5056796;28;20178;-69
2023/06/24 08:52:03;;;;;;;3.50;3.20;;;20.90;99.90;;;;;;5088308;28;20414;-69
2023/06/24 08:54:32;;;;;;;7.50;3.37;;;20.80;99.90;;;;;;5094058;28;20220;-70
2023/06/24 08:57:05;;;;;;;4.50;3.50;;;20.90;99.90;;;;;;5094651;28;20402;-68
2023/06/24 08:59:35;;;;;;;3.70;3.30;;;21.00;99.90;;;;;;5079538;28;20418;-71
2023/06/24 09:02:03;;;;;;;3.90;3.53;;;21.10;99.90;;;;;;5088506;28;20802;-69
2023/06/24 09:04:29;;;;;;;3.27;2.97;;;21.30;99.90;;;;;;5094194;28;20434;-68
2023/06/24 09:06:56;;;;;;;3.23;2.97;;;21.50;99.90;;;;;;5089460;28;20420;-68
2023/06/24 09:09:22;;;;;;;4.07;3.67;;;21.60;99.90;;;;;;5065042;28;20193;-69
2023/06/24 09:11:53;;;;;;;3.80;3.50;;;21.70;99.90;;;;;;5086586;28;20508;-69
2023/06/24 09:14:19;;;;;;;3.67;3.30;;;21.80;99.90;;;;;;5074641;28;20530;-69
2023/06/24 09:16:56;;;;;;;3.67;3.20;;;22.00;99.90;;;;;;5091792;28;20424;-69
2023/06/24 09:19:29;;;;;;;3.37;3.07;;;22.20;99.90;;;;;;5093728;28;20414;-70
2023/06/24 09:22:01;;;;;;;3.00;2.77;;;22.50;99.90;;;;;;5092981;28;20977;-70
2023/06/24 09:24:37;;;;;;;3.63;2.90;;;22.80;99.90;;;;;;5093977;28;20474;-68
2023/06/24 09:27:04;;;;;;;4.63;3.20;;;23.10;99.90;;;;;;5093818;28;20399;-70
2023/06/24 09:29:34;;;;;;;5.30;3.20;;;23.10;99.90;;;;;;5092606;28;20443;-68
2023/06/24 09:32:03;;;;;;;3.50;3.00;;;23.20;99.90;;;;;;5090284;28;20912;-69
2023/06/24 09:34:29;;;;;;;3.50;3.27;;;23.40;99.90;;;;;;5073487;28;20423;-69
2023/06/24 09:36:57;;;;;;;10.00;4.73;;;23.60;99.90;;;;;;5089322;28;20408;-70
2023/06/24 09:39:30;;;;;;;3.30;3.10;;;23.90;99.90;;;;;;5055609;28;20491;-66
2023/06/24 09:41:56;;;;;;;3.43;3.00;;;24.00;99.90;;;;;;5072493;28;20464;-68
2023/06/24 09:44:23;;;;;;;3.88;3.50;;;24.20;99.90;;;;;;5055221;28;20414;-67
2023/06/24 09:46:49;;;;;;;3.37;3.10;;;24.30;99.90;;;;;;5073481;28;20204;-69
2023/06/24 09:49:15;;;;;;;7.20;3.20;;;24.40;99.90;;;;;;5073662;28;20556;-66
2023/06/24 09:51:45;;;;;;;3.50;3.30;;;24.50;99.90;;;;;;5071864;28;20809;-66
2023/06/24 09:54:13;;;;;;;4.00;3.07;;;24.70;99.90;;;;;;5073263;28;20216;-70
2023/06/24 09:56:46;;;;;;;6.70;4.20;;;24.70;99.90;;;;;;5073435;28;20479;-69
2023/06/24 09:59:13;;;;;;;3.90;3.60;;;24.90;99.90;;;;;;5073047;28;20443;-68
2023/06/24 10:01:40;;;;;;;4.27;3.90;;;25.00;99.90;;;;;;5084898;28;20422;-69
2023/06/24 10:04:07;;;;;;;5.80;3.50;;;25.20;99.90;;;;;;5093305;28;20411;-69
2023/06/24 10:06:34;;;;;;;3.63;3.43;;;25.60;99.90;;;;;;5086752;28;20503;-68
2023/06/24 10:09:01;;;;;;;5.80;3.83;;;25.50;99.90;;;;;;5073152;28;20944;-69
2023/06/24 10:11:27;;;;;;;4.20;3.60;;;25.40;99.90;;;;;;5072229;28;20515;-69
2023/06/24 10:13:54;;;;;;;5.60;3.70;;;25.20;99.90;;;;;;5082851;28;20459;-69
2023/06/24 10:16:20;;;;;;;4.23;3.73;;;25.00;99.90;;;;;;5093166;28;20403;-70
2023/06/24 10:18:46;;;;;;;4.87;4.40;;;24.80;99.90;;;;;;5092904;28;20446;-69
2023/06/24 10:21:14;;;;;;;6.57;3.70;;;24.50;99.90;;;;;;5073517;28;20468;-71
2023/06/24 10:23:47;;;;;;;5.27;4.50;;;24.60;99.90;;;;;;5085508;28;20436;-70
2023/06/24 10:26:28;;;;;;;5.87;4.00;;;24.60;99.90;;;;;;5072947;28;20489;-69
2023/06/24 10:29:06;;;;;;;4.30;3.90;;;24.70;99.90;;;;;;5072876;28;20452;-69
2023/06/24 10:31:42;;;;;;;4.40;4.00;;;25.10;99.90;;;;;;5104977;28;20394;-69
2023/06/24 10:34:22;;;;;;;7.07;3.80;;;25.20;99.90;;;;;;5113506;28;20438;-70
2023/06/24 10:37:11;;;;;;;4.50;4.10;;;25.30;99.90;;;;;;5094976;28;20410;-70
2023/06/24 10:39:53;;;;;;;5.50;3.70;;;25.60;99.90;;;;;;5113164;28;20939;-70
2023/06/24 10:42:29;;;;;;;4.47;4.07;;;25.90;99.90;;;;;;5072101;28;20415;-70
2023/06/24 10:44:59;;;;;;;3.90;3.53;;;26.10;99.90;;;;;;5072692;28;20466;-71
2023/06/24 10:47:26;;;;;;;8.67;5.40;;;26.10;99.90;;;;;;5072845;28;20470;-71
2023/06/24 10:49:52;;;;;;;4.17;3.70;;;26.00;99.90;;;;;;5072520;28;20404;-70
2023/06/24 10:52:21;;;;;;;4.60;3.27;;;26.10;99.90;;;;;;5072171;28;20396;-69
2023/06/24 10:54:47;;;;;;;5.80;4.30;;;26.20;99.90;;;;;;5074874;28;20411;-70
2023/06/24 10:57:12;;;;;;;4.60;4.17;;;26.30;99.90;;;;;;5087657;28;20489;-70
2023/06/24 10:59:46;;;;;;;4.10;3.73;;;26.50;99.90;;;;;;5072408;28;20483;-69
2023/06/24 11:02:19;;;;;;;4.43;4.03;;;26.60;99.90;;;;;;5077753;28;20487;-72
2023/06/24 11:05:01;;;;;;;4.63;4.23;;;26.90;99.90;;;;;;5076186;28;20419;-70
2023/06/24 11:07:30;;;;;;;5.90;4.40;;;26.80;99.90;;;;;;5058370;28;20534;-69
2023/06/24 11:10:06;;;;;;;4.70;4.30;;;26.80;99.90;;;;;;5076147;28;20400;-69
2023/06/24 11:12:37;;;;;;;6.90;3.80;;;27.00;99.90;;;;;;5075956;28;20442;-69
2023/06/24 11:15:08;;;;;;;4.97;4.57;;;27.20;99.90;;;;;;5086015;28;20423;-70
2023/06/24 11:17:35;;;;;;;5.67;4.10;;;27.40;99.90;;;;;;5096385;28;20428;-69
2023/06/24 11:20:02;;;;;;;5.13;4.17;;;27.50;99.90;;;;;;5096191;28;20434;-69
2023/06/24 11:22:27;;;;;;;4.60;4.20;;;27.60;99.90;;;;;;5095791;28;20435;-71
2023/06/24 11:24:55;;;;;;;6.13;4.60;;;27.80;99.90;;;;;;5096264;28;20427;-71
2023/06/24 11:27:25;;;;;;;6.13;4.00;;;27.60;99.90;;;;;;5077926;28;20576;-70
2023/06/24 11:29:53;;;;;;;4.53;4.13;;;27.20;99.90;;;;;;5095916;28;20448;-69
2023/06/24 11:32:19;;;;;;;4.30;4.00;;;27.40;99.90;;;;;;5094188;28;20924;-70
2023/06/24 11:34:44;;;;;;;5.57;3.77;;;27.80;99.90;;;;;;5096243;28;20423;-72
2023/06/24 11:37:18;;;;;;;4.30;3.90;;;28.10;99.90;;;;;;5096076;28;20193;-72
2023/06/24 11:39:44;;;;;;;4.67;4.00;;;27.90;99.90;;;;;;5096416;28;20157;-73
2023/06/24 11:42:11;;;;;;;4.90;3.80;;;27.60;99.90;;;;;;5077201;28;20903;-72
2023/06/24 11:44:44;;;;;;;6.07;4.63;;;27.70;99.90;;;;;;5095664;28;20412;-71
2023/06/24 11:47:12;;;;;;;4.33;3.93;;;28.20;99.90;;;;;;5095705;28;20415;-72
2023/06/24 11:49:57;;;;;;;4.50;4.10;;;28.80;99.90;;;;;;5079745;28;20453;-70
2023/06/24 11:52:35;;;;;;;5.17;3.90;;;28.80;99.90;;;;;;5074984;28;20407;-69
2023/06/24 11:55:02;;;;;;;4.20;3.80;;;28.20;99.90;;;;;;5075526;28;20424;-70
2023/06/24 11:58:04;;;;;;;3.33;3.03;;;27.60;99.90;;;;;;5075391;28;20495;-73
2023/06/24 12:00:51;;;;;;;7.03;4.90;;;27.80;99.90;;;;;;5012665;28;20430;-73
2023/06/24 12:03:17;;;;;;;3.67;3.37;;;28.70;99.90;;;;;;5091456;28;20442;-69
2023/06/24 12:05:47;;;;;;;4.77;3.30;;;29.30;99.90;;;;;;5087586;28;20495;-67
2023/06/24 12:08:16;;;;;;;4.07;3.70;;;29.00;99.90;;;;;;5074018;28;20456;-67
2023/06/24 12:10:44;;;;;;;6.33;3.60;;;28.60;99.90;;;;;;5056013;28;20581;-65
2023/06/24 12:13:09;;;;;;;3.77;3.50;;;28.10;99.90;;;;;;5073886;28;20417;-67
2023/06/24 12:15:35;;;;;;;9.53;3.57;;;27.70;99.90;;;;;;5077116;28;20750;-66
2023/06/24 12:18:02;;;;;;;5.07;3.77;;;27.60;99.90;;;;;;5092617;28;20169;-65
2023/06/24 12:20:29;;;;;;;4.07;3.77;;;27.60;99.90;;;;;;5094488;28;20396;-66
2023/06/24 12:22:55;;;;;;;4.10;3.80;;;28.00;99.90;;;;;;5086006;28;20405;-66
2023/06/24 12:25:21;;;;;;;3.60;3.30;;;28.90;99.90;;;;;;5074307;28;20819;-67
2023/06/24 12:27:47;;;;;;;5.10;3.80;;;29.50;99.90;;;;;;5086125;28;20289;-66
2023/06/24 12:30:13;;;;;;;4.47;3.42;;;29.50;99.90;;;;;;5065267;28;20444;-71
2023/06/24 12:32:39;;;;;;;4.00;3.50;;;29.10;99.90;;;;;;5080936;28;20252;-68
2023/06/24 12:35:06;;;;;;;4.37;3.97;;;29.00;99.90;;;;;;5078187;28;21006;-68
2023/06/24 12:37:32;;;;;;;3.33;3.10;;;29.20;99.90;;;;;;5074658;28;20436;-68
2023/06/24 12:39:58;;;;;;;4.00;3.70;;;29.00;99.90;;;;;;5084169;28;20415;-68
2023/06/24 12:42:25;;;;;;;4.20;3.67;;;28.60;99.90;;;;;;5093572;28;20410;-68
2023/06/24 12:44:50;;;;;;;5.27;4.70;;;28.20;99.90;;;;;;5094428;28;20475;-67
2023/06/24 12:47:16;;;;;;;5.40;3.70;;;27.80;99.90;;;;;;5094595;28;20955;-69
2023/06/24 12:49:42;;;;;;;3.87;3.57;;;27.50;99.90;;;;;;5094577;28;20177;-68
2023/06/24 12:52:07;;;;;;;4.10;3.70;;;27.40;99.90;;;;;;5084981;28;20167;-67
2023/06/24 12:54:33;;;;;;;4.13;3.70;;;27.50;99.90;;;;;;5072531;28;20213;-68
2023/06/24 12:56:59;;;;;;;4.37;3.97;;;27.40;99.90;;;;;;5089659;28;20181;-67
2023/06/24 12:59:25;;;;;;;3.73;3.53;;;27.20;99.90;;;;;;5075951;28;20178;-69
2023/06/24 13:01:51;;;;;;;5.67;4.40;;;27.00;99.90;;;;;;5092954;28;20449;-67